createdAt,value
2019-04-01T00:01:00.107Z,170.20
2019-04-01T00:05:09.292Z,164.73
2019-04-01T00:09:17.991Z,160.93
2019-04-01T00:13:26.726Z,169.67
2019-04-01T00:17:36.935Z,172.07
2019-04-01T00:21:48.299Z,167.17
2019-04-01T00:25:57.468Z,179.20
2019-04-01T00:30:06.343Z,164.07
2019-04-01T00:34:15.083Z,165.52
2019-04-01T00:38:26.489Z,167.60
2019-04-01T00:42:36.891Z,165.30
2019-04-01T00:46:45.692Z,164.60
2019-04-01T00:50:57.483Z,164.50
2019-04-01T00:55:06.572Z,173.87
2019-04-01T00:59:15.445Z,173.10
2019-04-01T01:03:24.176Z,165.43
2019-04-01T01:07:32.935Z,165.57
2019-04-01T01:11:41.669Z,160.93
2019-04-01T01:15:50.503Z,163.90
2019-04-01T01:19:59.318Z,162.20
2019-04-01T01:24:08.050Z,160.37
2019-04-01T01:28:16.745Z,159.83
2019-04-01T01:32:25.495Z,157.30
2019-04-01T01:36:34.633Z,158.67
2019-04-01T01:40:43.411Z,161.07
2019-04-01T01:44:52.165Z,158.93
2019-04-01T01:49:01.322Z,162.53
2019-04-01T01:53:10.154Z,157.67
2019-04-01T01:57:19.012Z,158.43
2019-04-01T02:01:27.821Z,160.03
2019-04-01T02:05:36.855Z,156.53
2019-04-01T02:09:45.677Z,158.40
2019-04-01T02:13:54.429Z,163.47
2019-04-01T02:18:03.253Z,157.80
2019-04-01T02:22:12.577Z,159.40
2019-04-01T02:26:21.403Z,162.90
2019-04-01T02:30:30.183Z,160.57
2019-04-01T02:34:39.528Z,158.90
2019-04-01T02:38:48.343Z,156.13
2019-04-01T02:42:58.773Z,154.63
2019-04-01T02:47:07.450Z,160.67
2019-04-01T02:51:16.214Z,158.23
2019-04-01T02:55:24.950Z,158.93
2019-04-01T02:59:33.767Z,161.43
2019-04-01T03:03:42.449Z,158.70
2019-04-01T03:07:51.211Z,160.93
2019-04-01T03:11:59.962Z,157.72
2019-04-01T03:16:08.712Z,160.77
2019-04-01T03:20:17.415Z,159.63
2019-04-01T03:24:26.143Z,156.67
2019-04-01T03:28:34.914Z,158.00
2019-04-01T03:32:45.291Z,160.80
2019-04-01T03:36:54.050Z,159.73
2019-04-01T03:41:02.831Z,163.57
2019-04-01T03:45:11.649Z,155.27
2019-04-01T03:49:20.463Z,165.40
2019-04-01T03:53:29.212Z,158.07
2019-04-01T03:57:37.989Z,157.45
2019-04-01T04:01:46.750Z,161.53
2019-04-01T04:05:55.496Z,154.90
2019-04-01T04:10:06.083Z,159.33
2019-04-01T04:14:14.881Z,159.57
2019-04-01T04:18:23.765Z,158.83
2019-04-01T04:22:32.774Z,157.40
2019-04-01T04:26:41.570Z,156.90
2019-04-01T04:30:51.074Z,162.00
2019-04-01T04:34:59.815Z,160.40
2019-04-01T04:39:08.581Z,157.53
2019-04-01T04:43:17.355Z,158.33
2019-04-01T04:47:26.130Z,155.30
2019-04-01T04:51:35.669Z,159.10
2019-04-01T04:55:44.475Z,155.93
2019-04-01T04:59:53.202Z,157.97
2019-04-01T05:04:02.045Z,156.50
2019-04-01T05:08:10.812Z,171.77
2019-04-01T05:12:19.580Z,161.27
2019-04-01T05:16:28.483Z,155.37
2019-04-01T05:20:39.112Z,158.70
2019-04-01T05:24:48.332Z,163.47
2019-04-01T05:29:00.279Z,163.13
2019-04-01T05:33:12.120Z,170.32
2019-04-01T05:37:20.882Z,166.40
2019-04-01T05:41:30.029Z,165.70
2019-04-01T05:45:38.879Z,166.43
2019-04-01T05:49:47.809Z,169.73
2019-04-01T05:53:56.838Z,182.90
2019-04-01T05:58:05.525Z,171.07
2019-04-01T06:02:14.329Z,169.47
2019-04-01T06:06:23.739Z,165.50
2019-04-01T06:10:32.471Z,162.93
2019-04-01T06:14:41.259Z,163.77
2019-04-01T06:18:50.746Z,167.30
2019-04-01T06:22:59.754Z,166.13
2019-04-01T06:27:08.523Z,165.77
2019-04-01T06:31:17.276Z,174.37
2019-04-01T06:35:26.632Z,165.10
2019-04-01T06:39:36.134Z,171.87
2019-04-01T06:43:46.516Z,169.63
2019-04-01T06:47:56.609Z,166.90
2019-04-01T06:52:05.372Z,167.17
2019-04-01T06:56:14.177Z,166.07
2019-04-01T07:00:23.027Z,167.43
2019-04-01T07:04:31.784Z,167.00
2019-04-01T07:08:40.783Z,165.07
2019-04-01T07:12:49.660Z,166.47
2019-04-01T07:16:58.492Z,173.50
2019-04-01T07:21:07.876Z,175.50
2019-04-01T07:25:16.642Z,171.90
2019-04-01T07:29:25.571Z,177.03
2019-04-01T07:33:35.315Z,178.63
2019-04-01T07:37:44.196Z,178.77
2019-04-01T07:41:53.829Z,174.25
2019-04-01T07:46:08.133Z,168.50
2019-04-01T07:50:16.260Z,172.50
2019-04-01T07:54:25.124Z,179.83
2019-04-01T07:58:34.624Z,183.50
2019-04-01T08:02:43.396Z,178.97
2019-04-01T08:06:53.146Z,175.27
2019-04-01T08:11:01.901Z,172.00
2019-04-01T08:15:11.489Z,175.43
2019-04-01T08:19:21.263Z,169.87
2019-04-01T08:23:31.087Z,173.00
2019-04-01T08:27:39.888Z,167.27
2019-04-01T08:31:48.674Z,178.50
2019-04-01T08:35:58.947Z,176.23
2019-04-01T08:40:08.235Z,177.47
2019-04-01T08:44:17.327Z,173.43
2019-04-01T08:48:26.052Z,172.70
2019-04-01T08:52:34.887Z,172.37
2019-04-01T08:56:43.937Z,171.80
2019-04-01T09:00:56.267Z,174.73
2019-04-01T09:05:06.766Z,175.53
2019-04-01T09:09:15.508Z,174.10
2019-04-01T09:13:24.748Z,177.73
2019-04-01T09:17:33.509Z,178.90
2019-04-01T09:21:42.308Z,181.17
2019-04-01T09:25:51.947Z,177.03
2019-04-01T09:30:02.111Z,175.37
2019-04-01T09:34:10.859Z,180.13
2019-04-01T09:38:19.662Z,173.67
2019-04-01T09:42:28.450Z,170.97
2019-04-01T09:46:39.683Z,173.30
2019-04-01T09:50:49.736Z,174.17
2019-04-01T09:55:01.988Z,171.53
2019-04-01T09:59:10.865Z,170.80
2019-04-01T10:03:19.686Z,175.47
2019-04-01T10:07:28.377Z,173.43
2019-04-01T10:11:37.133Z,178.10
2019-04-01T10:15:46.228Z,182.00
2019-04-01T10:19:54.945Z,172.37
2019-04-01T10:24:03.708Z,177.87
2019-04-01T10:28:14.062Z,178.80
2019-04-01T10:32:22.915Z,174.10
2019-04-01T10:36:31.783Z,172.70
2019-04-01T10:40:40.563Z,184.30
2019-04-01T10:44:49.411Z,175.70
2019-04-01T10:48:58.233Z,183.80
2019-04-01T10:53:07.183Z,193.97
2019-04-01T10:57:15.990Z,184.13
2019-04-01T11:01:24.764Z,175.00
2019-04-01T11:05:33.751Z,177.37
2019-04-01T11:09:42.424Z,176.50
2019-04-01T11:13:51.995Z,174.82
2019-04-01T11:18:01.665Z,177.30
2019-04-01T11:22:10.438Z,190.90
2019-04-01T11:26:19.179Z,180.43
2019-04-01T11:30:28.023Z,180.33
2019-04-01T11:34:36.754Z,167.50
2019-04-01T11:38:45.483Z,168.90
2019-04-01T11:42:54.233Z,171.43
2019-04-01T11:47:02.990Z,176.57
2019-04-01T11:51:11.782Z,174.83
2019-04-01T11:55:20.544Z,171.10
2019-04-01T11:59:29.306Z,172.70
2019-04-01T12:03:38.047Z,170.27
2019-04-01T12:07:46.869Z,171.80
2019-04-01T12:11:55.636Z,180.10
2019-04-01T12:16:04.381Z,176.17
2019-04-01T12:20:13.707Z,175.43
2019-04-01T12:24:22.444Z,188.90
2019-04-01T12:28:31.269Z,174.43
2019-04-01T12:32:40.069Z,173.90
2019-04-01T12:36:49.294Z,181.47
2019-04-01T12:40:58.292Z,181.10
2019-04-01T12:45:07.665Z,178.10
2019-04-01T12:49:16.492Z,176.13
2019-04-01T12:53:25.232Z,183.87
2019-04-01T12:57:33.989Z,181.43
2019-04-01T13:01:42.891Z,172.20
2019-04-01T13:05:51.710Z,171.30
2019-04-01T13:10:00.587Z,169.30
2019-04-01T13:14:09.340Z,180.97
2019-04-01T13:18:18.178Z,174.23
2019-04-01T13:22:27.781Z,176.57
2019-04-01T13:26:36.526Z,177.33
2019-04-01T13:30:47.229Z,174.70
2019-04-01T13:34:56.023Z,175.03
2019-04-01T13:39:06.354Z,172.83
2019-04-01T13:43:16.922Z,176.77
2019-04-01T13:47:25.664Z,172.50
2019-04-01T13:51:34.444Z,176.20
2019-04-01T13:55:43.155Z,175.30
2019-04-01T13:59:52.145Z,173.43
2019-04-01T14:04:00.847Z,174.97
2019-04-01T14:08:09.561Z,174.43
2019-04-01T14:12:18.307Z,172.87
2019-04-01T14:16:27.139Z,169.55
2019-04-01T14:20:35.900Z,169.50
2019-04-01T14:24:45.378Z,178.00
2019-04-01T14:28:54.445Z,176.90
2019-04-01T14:33:03.479Z,200.97
2019-04-01T14:37:12.492Z,175.90
2019-04-01T14:41:21.270Z,189.53
2019-04-01T14:45:30.035Z,171.70
2019-04-01T14:49:38.787Z,179.00
2019-04-01T14:53:47.537Z,175.20
2019-04-01T14:57:56.323Z,175.30
2019-04-01T15:02:05.100Z,174.43
2019-04-01T15:06:13.915Z,176.50
2019-04-01T15:10:22.869Z,173.90
2019-04-01T15:14:31.637Z,170.33
2019-04-01T15:18:40.355Z,170.40
2019-04-01T15:22:49.117Z,172.37
2019-04-01T15:26:57.868Z,175.63
2019-04-01T15:31:06.695Z,171.27
2019-04-01T15:35:15.444Z,172.73
2019-04-01T15:39:24.199Z,174.87
2019-04-01T15:43:32.928Z,174.50
2019-04-01T15:47:41.684Z,176.53
2019-04-01T15:51:50.477Z,172.60
2019-04-01T15:55:59.532Z,174.23
2019-04-01T16:00:10.505Z,182.77
2019-04-01T16:04:19.290Z,177.53
2019-04-01T16:08:28.058Z,177.60
2019-04-01T16:12:36.808Z,171.77
2019-04-01T16:16:45.631Z,170.53
2019-04-01T16:20:55.194Z,176.83
2019-04-01T16:25:07.990Z,178.33
2019-04-01T16:29:16.867Z,175.07
2019-04-01T16:33:25.586Z,177.27
2019-04-01T16:37:34.356Z,172.00
2019-04-01T16:41:43.194Z,178.03
2019-04-01T16:45:51.901Z,173.80
2019-04-01T16:50:00.613Z,172.47
2019-04-01T16:54:09.347Z,173.77
2019-04-01T16:58:18.078Z,174.30
2019-04-01T17:02:26.868Z,174.27
2019-04-01T17:06:36.004Z,170.90
2019-04-01T17:10:44.770Z,173.43
2019-04-01T17:14:53.717Z,173.77
2019-04-01T17:19:02.510Z,177.53
2019-04-01T17:23:11.274Z,170.73
2019-04-01T17:27:20.094Z,175.10
2019-04-01T17:31:28.883Z,168.30
2019-04-01T17:35:37.603Z,173.33
2019-04-01T17:39:46.382Z,176.13
2019-04-01T17:43:55.143Z,170.70
2019-04-01T17:48:04.613Z,170.83
2019-04-01T17:52:13.889Z,176.93
2019-04-01T17:56:22.693Z,177.30
2019-04-01T18:00:33.111Z,173.73
2019-04-01T18:04:41.948Z,172.33
2019-04-01T18:08:50.676Z,171.80
2019-04-01T18:12:59.424Z,176.13
2019-04-01T18:17:08.169Z,170.63
2019-04-01T18:21:17.066Z,172.33
2019-04-01T18:25:25.826Z,169.83
2019-04-01T18:29:34.569Z,169.40
2019-04-01T18:33:55.699Z,166.80
2019-04-01T18:37:53.736Z,174.70
2019-04-01T18:42:03.088Z,170.17
2019-04-01T18:46:12.297Z,166.73
2019-04-01T18:50:21.035Z,176.30
2019-04-01T18:54:29.914Z,170.10
2019-04-01T18:58:38.697Z,168.17
2019-04-01T19:02:47.519Z,167.90
2019-04-01T19:06:56.348Z,173.43
2019-04-01T19:11:05.063Z,168.07
2019-04-01T19:15:13.962Z,168.53
2019-04-01T19:19:22.734Z,168.47
2019-04-01T19:23:31.542Z,169.87
2019-04-01T19:27:40.264Z,169.70
2019-04-01T19:31:51.231Z,178.13
2019-04-01T19:36:01.163Z,171.70
2019-04-01T19:40:10.471Z,169.13
2019-04-01T19:44:19.205Z,166.57
2019-04-01T19:48:28.236Z,170.70
2019-04-01T19:52:36.945Z,167.17
2019-04-01T19:56:45.681Z,169.27
2019-04-01T20:00:56.503Z,173.20
2019-04-01T20:05:07.016Z,168.37
2019-04-01T20:09:15.770Z,169.30
2019-04-01T20:13:24.491Z,170.70
2019-04-01T20:17:33.264Z,169.85
2019-04-01T20:21:42.078Z,168.67
2019-04-01T20:25:50.849Z,172.57
2019-04-01T20:30:00.447Z,169.43
2019-04-01T20:34:19.024Z,166.67
2019-04-01T20:38:20.052Z,166.03
2019-04-01T20:42:33.463Z,169.10
2019-04-01T20:46:41.018Z,165.73
2019-04-01T20:50:49.757Z,167.17
2019-04-01T20:54:58.440Z,164.43
2019-04-01T20:59:07.195Z,164.43
2019-04-01T21:03:16.006Z,165.27
2019-04-01T21:07:24.890Z,168.90
2019-04-01T21:11:33.608Z,164.40
2019-04-01T21:15:43.403Z,172.05
2019-04-01T21:19:52.601Z,167.80
2019-04-01T21:24:01.353Z,165.30
2019-04-01T21:28:28.798Z,169.23
2019-04-01T21:32:38.854Z,163.30
2019-04-01T21:36:49.910Z,168.53
2019-04-01T21:41:00.961Z,162.67
2019-04-01T21:45:12.250Z,162.50
2019-04-01T21:49:23.380Z,163.10
2019-04-01T21:53:32.123Z,166.90
2019-04-01T21:57:43.398Z,174.93
2019-04-01T22:01:54.455Z,167.83
2019-04-01T22:06:05.492Z,164.83
2019-04-01T22:10:32.807Z,160.23
2019-04-01T22:15:00.174Z,161.97
2019-04-01T22:19:27.880Z,163.37
2019-04-01T22:23:55.399Z,163.60
2019-04-01T22:28:23.077Z,159.97
2019-04-01T22:32:50.284Z,160.60
2019-04-01T22:37:27.024Z,161.87
2019-04-01T22:41:49.123Z,165.03
2019-04-01T22:46:18.155Z,163.90
2019-04-01T22:50:45.806Z,166.93
2019-04-01T22:55:13.145Z,169.27
2019-04-01T22:59:41.000Z,166.93
2019-04-01T23:04:08.125Z,165.97
2019-04-01T23:08:38.287Z,162.23
2019-04-01T23:13:08.409Z,163.27
2019-04-01T23:17:38.219Z,161.70
2019-04-01T23:22:06.008Z,164.93
2019-04-01T23:26:33.443Z,160.03
2019-04-01T23:31:01.173Z,161.73
2019-04-01T23:35:28.444Z,158.53
2019-04-01T23:39:59.226Z,159.13
2019-04-01T23:44:28.516Z,163.53
2019-04-01T23:48:56.006Z,158.00
2019-04-01T23:53:23.905Z,163.63
2019-04-01T23:57:51.546Z,161.50
